sensor_id;sensor_type;location;lat;lon;timestamp;temperature;humidity
23100;DHT22;53791;50.696;4.396;2023-03-04T00:01:40;6.30;99.90
23100;DHT22;53791;50.696;4.396;2023-03-04T00:04:09;6.40;99.90
23100;DHT22;53791;50.696;4.396;2023-03-04T00:06:37;6.40;99.90
23100;DHT22;53791;50.696;4.396;2023-03-04T00:09:04;6.30;99.90
23100;DHT22;53791;50.696;4.396;2023-03-04T00:11:32;6.30;99.90
23100;DHT22;53791;50.696;4.396;2023-03-04T00:13:59;6.20;99.90
23100;DHT22;53791;50.696;4.396;2023-03-04T00:16:27;6.20;99.90
23100;DHT22;53791;50.696;4.396;2023-03-04T00:18:55;6.20;99.90
23100;DHT22;53791;50.696;4.396;2023-03-04T00:21:23;6.10;99.90
23100;DHT22;53791;50.696;4.396;2023-03-04T00:23:57;6.20;99.90
23100;DHT22;53791;50.696;4.396;2023-03-04T00:26:26;6.30;99.90
23100;DHT22;53791;50.696;4.396;2023-03-04T00:28:53;6.50;99.90
23100;DHT22;53791;50.696;4.396;2023-03-04T00:31:24;6.40;99.90
23100;DHT22;53791;50.696;4.396;2023-03-04T00:33:51;6.60;99.90
23100;DHT22;53791;50.696;4.396;2023-03-04T00:36:19;6.40;99.90
23100;DHT22;53791;50.696;4.396;2023-03-04T00:38:47;6.40;99.90
23100;DHT22;53791;50.696;4.396;2023-03-04T00:41:14;6.30;99.90
23100;DHT22;53791;50.696;4.396;2023-03-04T00:43:42;6.30;99.90
23100;DHT22;53791;50.696;4.396;2023-03-04T00:46:09;6.20;99.90
23100;DHT22;53791;50.696;4.396;2023-03-04T00:48:37;6.10;99.90
23100;DHT22;53791;50.696;4.396;2023-03-04T00:51:07;6.10;99.90
23100;DHT22;53791;50.696;4.396;2023-03-04T00:53:34;6.10;99.90
23100;DHT22;53791;50.696;4.396;2023-03-04T00:56:03;6.10;99.90
23100;DHT22;53791;50.696;4.396;2023-03-04T00:58:31;6.10;99.90
23100;DHT22;53791;50.696;4.396;2023-03-04T01:00:58;6.30;99.90
23100;DHT22;53791;50.696;4.396;2023-03-04T01:03:30;6.20;99.90
23100;DHT22;53791;50.696;4.396;2023-03-04T01:05:57;6.20;99.90
23100;DHT22;53791;50.696;4.396;2023-03-04T01:08:26;6.10;99.90
23100;DHT22;53791;50.696;4.396;2023-03-04T01:10:55;6.10;99.90
23100;DHT22;53791;50.696;4.396;2023-03-04T01:13:23;6.10;99.90
23100;DHT22;53791;50.696;4.396;2023-03-04T01:15:50;6.10;99.90
23100;DHT22;53791;50.696;4.396;2023-03-04T01:18:18;6.10;99.90
23100;DHT22;53791;50.696;4.396;2023-03-04T01:20:45;6.00;99.90
23100;DHT22;53791;50.696;4.396;2023-03-04T01:23:13;6.00;99.90
23100;DHT22;53791;50.696;4.396;2023-03-04T01:25:40;6.10;99.90
23100;DHT22;53791;50.696;4.396;2023-03-04T01:28:08;6.10;99.90
23100;DHT22;53791;50.696;4.396;2023-03-04T01:30:36;6.10;99.90
23100;DHT22;53791;50.696;4.396;2023-03-04T01:33:04;6.20;99.90
23100;DHT22;53791;50.696;4.396;2023-03-04T01:35:31;6.20;99.90
23100;DHT22;53791;50.696;4.396;2023-03-04T01:38:01;6.20;99.90
23100;DHT22;53791;50.696;4.396;2023-03-04T01:40:29;6.20;99.90
23100;DHT22;53791;50.696;4.396;2023-03-04T01:42:56;6.20;99.90
23100;DHT22;53791;50.696;4.396;2023-03-04T01:45:24;6.10;99.90
23100;DHT22;53791;50.696;4.396;2023-03-04T01:47:52;6.10;99.90
23100;DHT22;53791;50.696;4.396;2023-03-04T01:50:23;6.10;99.90
23100;DHT22;53791;50.696;4.396;2023-03-04T01:52:52;6.10;99.90
23100;DHT22;53791;50.696;4.396;2023-03-04T01:55:21;6.10;99.90
23100;DHT22;53791;50.696;4.396;2023-03-04T01:57:50;6.10;99.90
23100;DHT22;53791;50.696;4.396;2023-03-04T02:00:21;6.10;99.90
23100;DHT22;53791;50.696;4.396;2023-03-04T02:02:52;6.10;99.90
23100;DHT22;53791;50.696;4.396;2023-03-04T02:05:21;6.10;99.90
23100;DHT22;53791;50.696;4.396;2023-03-04T02:07:49;6.20;99.90
23100;DHT22;53791;50.696;4.396;2023-03-04T02:10:19;6.20;99.90
23100;DHT22;53791;50.696;4.396;2023-03-04T02:12:47;6.20;99.90
23100;DHT22;53791;50.696;4.396;2023-03-04T02:15:15;6.30;99.90
23100;DHT22;53791;50.696;4.396;2023-03-04T02:17:43;6.30;99.90
23100;DHT22;53791;50.696;4.396;2023-03-04T02:20:42;6.30;99.90
23100;DHT22;53791;50.696;4.396;2023-03-04T02:23:15;6.20;99.90
23100;DHT22;53791;50.696;4.396;2023-03-04T02:28:16;6.20;99.90
23100;DHT22;53791;50.696;4.396;2023-03-04T02:30:45;6.20;99.90
23100;DHT22;53791;50.696;4.396;2023-03-04T02:33:16;6.10;99.90
23100;DHT22;53791;50.696;4.396;2023-03-04T02:35:46;6.10;99.90
23100;DHT22;53791;50.696;4.396;2023-03-04T02:38:14;6.20;99.90
23100;DHT22;53791;50.696;4.396;2023-03-04T02:40:43;6.20;99.90
23100;DHT22;53791;50.696;4.396;2023-03-04T02:43:11;6.20;99.90
23100;DHT22;53791;50.696;4.396;2023-03-04T02:45:46;6.10;99.90
23100;DHT22;53791;50.696;4.396;2023-03-04T02:48:17;6.10;99.90
23100;DHT22;53791;50.696;4.396;2023-03-04T02:50:47;6.10;99.90
23100;DHT22;53791;50.696;4.396;2023-03-04T02:53:16;6.10;99.90
23100;DHT22;53791;50.696;4.396;2023-03-04T02:55:47;6.10;99.90
23100;DHT22;53791;50.696;4.396;2023-03-04T02:58:18;6.10;99.90
23100;DHT22;53791;50.696;4.396;2023-03-04T03:00:43;6.10;99.90
23100;DHT22;53791;50.696;4.396;2023-03-04T03:03:11;6.20;99.90
23100;DHT22;53791;50.696;4.396;2023-03-04T03:05:39;6.20;99.90
23100;DHT22;53791;50.696;4.396;2023-03-04T03:08:06;6.10;99.90
23100;DHT22;53791;50.696;4.396;2023-03-04T03:10:35;6.20;99.90
23100;DHT22;53791;50.696;4.396;2023-03-04T03:13:03;6.10;99.90
23100;DHT22;53791;50.696;4.396;2023-03-04T03:15:32;6.20;99.90
23100;DHT22;53791;50.696;4.396;2023-03-04T03:18:01;6.10;99.90
23100;DHT22;53791;50.696;4.396;2023-03-04T03:20:29;6.10;99.90
23100;DHT22;53791;50.696;4.396;2023-03-04T03:22:56;6.10;99.90
23100;DHT22;53791;50.696;4.396;2023-03-04T03:25:24;6.10;99.90
23100;DHT22;53791;50.696;4.396;2023-03-04T03:27:51;6.20;99.90
23100;DHT22;53791;50.696;4.396;2023-03-04T03:30:19;6.20;99.90
23100;DHT22;53791;50.696;4.396;2023-03-04T03:32:47;6.10;99.90
23100;DHT22;53791;50.696;4.396;2023-03-04T03:35:19;6.10;99.90
23100;DHT22;53791;50.696;4.396;2023-03-04T03:37:47;6.20;99.90
23100;DHT22;53791;50.696;4.396;2023-03-04T03:40:16;6.20;99.90
23100;DHT22;53791;50.696;4.396;2023-03-04T03:42:43;6.10;99.90
23100;DHT22;53791;50.696;4.396;2023-03-04T03:45:11;6.10;99.90
23100;DHT22;53791;50.696;4.396;2023-03-04T03:47:38;6.10;99.90
23100;DHT22;53791;50.696;4.396;2023-03-04T03:50:09;6.20;99.90
23100;DHT22;53791;50.696;4.396;2023-03-04T03:52:37;6.20;99.90
23100;DHT22;53791;50.696;4.396;2023-03-04T03:55:05;6.20;99.90
23100;DHT22;53791;50.696;4.396;2023-03-04T03:57:46;6.20;99.90
23100;DHT22;53791;50.696;4.396;2023-03-04T04:00:02;6.30;99.90
23100;DHT22;53791;50.696;4.396;2023-03-04T04:02:29;6.20;99.90
23100;DHT22;53791;50.696;4.396;2023-03-04T04:04:57;6.20;99.90
23100;DHT22;53791;50.696;4.396;2023-03-04T04:07:26;6.10;99.90
23100;DHT22;53791;50.696;4.396;2023-03-04T04:09:53;6.20;99.90
23100;DHT22;53791;50.696;4.396;2023-03-04T04:12:21;6.20;99.90
23100;DHT22;53791;50.696;4.396;2023-03-04T04:14:48;6.10;99.90
23100;DHT22;53791;50.696;4.396;2023-03-04T04:17:18;6.10;99.90
23100;DHT22;53791;50.696;4.396;2023-03-04T04:19:45;6.10;99.90
23100;DHT22;53791;50.696;4.396;2023-03-04T04:22:16;6.20;99.90
23100;DHT22;53791;50.696;4.396;2023-03-04T04:24:43;6.20;99.90
23100;DHT22;53791;50.696;4.396;2023-03-04T04:27:11;6.20;99.90
23100;DHT22;53791;50.696;4.396;2023-03-04T04:29:39;6.30;99.90
23100;DHT22;53791;50.696;4.396;2023-03-04T04:32:07;6.30;99.90
23100;DHT22;53791;50.696;4.396;2023-03-04T04:34:34;6.20;99.90
23100;DHT22;53791;50.696;4.396;2023-03-04T04:37:02;6.20;99.90
23100;DHT22;53791;50.696;4.396;2023-03-04T04:39:29;6.30;99.90
23100;DHT22;53791;50.696;4.396;2023-03-04T04:41:57;6.30;99.90
23100;DHT22;53791;50.696;4.396;2023-03-04T04:44:25;6.40;99.90
23100;DHT22;53791;50.696;4.396;2023-03-04T04:46:52;6.30;99.90
23100;DHT22;53791;50.696;4.396;2023-03-04T04:49:20;6.30;99.90
23100;DHT22;53791;50.696;4.396;2023-03-04T04:51:47;6.20;99.90
23100;DHT22;53791;50.696;4.396;2023-03-04T04:54:15;6.20;99.90
23100;DHT22;53791;50.696;4.396;2023-03-04T04:56:42;6.20;99.90
23100;DHT22;53791;50.696;4.396;2023-03-04T04:59:16;6.20;99.90
23100;DHT22;53791;50.696;4.396;2023-03-04T05:01:39;6.20;99.90
23100;DHT22;53791;50.696;4.396;2023-03-04T05:04:07;6.20;99.90
23100;DHT22;53791;50.696;4.396;2023-03-04T05:06:36;6.30;99.90
23100;DHT22;53791;50.696;4.396;2023-03-04T05:09:05;6.30;99.90
23100;DHT22;53791;50.696;4.396;2023-03-04T05:11:33;6.30;99.90
23100;DHT22;53791;50.696;4.396;2023-03-04T05:14:00;6.30;99.90
23100;DHT22;53791;50.696;4.396;2023-03-04T05:16:28;6.30;99.90
23100;DHT22;53791;50.696;4.396;2023-03-04T05:19:00;6.40;99.90
23100;DHT22;53791;50.696;4.396;2023-03-04T05:21:26;6.30;99.90
23100;DHT22;53791;50.696;4.396;2023-03-04T05:23:54;6.30;99.90
23100;DHT22;53791;50.696;4.396;2023-03-04T05:26:21;6.30;99.90
23100;DHT22;53791;50.696;4.396;2023-03-04T05:28:49;6.30;99.90
23100;DHT22;53791;50.696;4.396;2023-03-04T05:31:18;6.40;99.90
23100;DHT22;53791;50.696;4.396;2023-03-04T05:33:46;6.30;99.90
23100;DHT22;53791;50.696;4.396;2023-03-04T05:36:13;6.30;99.90
23100;DHT22;53791;50.696;4.396;2023-03-04T05:38:41;6.40;99.90
23100;DHT22;53791;50.696;4.396;2023-03-04T05:41:08;6.40;99.90
23100;DHT22;53791;50.696;4.396;2023-03-04T05:43:36;6.40;99.90
23100;DHT22;53791;50.696;4.396;2023-03-04T05:46:05;6.30;99.90
23100;DHT22;53791;50.696;4.396;2023-03-04T05:48:33;6.20;99.90
23100;DHT22;53791;50.696;4.396;2023-03-04T05:51:01;6.20;99.90
23100;DHT22;53791;50.696;4.396;2023-03-04T05:53:29;6.30;99.90
23100;DHT22;53791;50.696;4.396;2023-03-04T05:55:57;6.30;99.90
23100;DHT22;53791;50.696;4.396;2023-03-04T05:58:25;6.40;99.90
23100;DHT22;53791;50.696;4.396;2023-03-04T06:00:53;6.40;99.90
23100;DHT22;53791;50.696;4.396;2023-03-04T06:03:21;6.50;99.90
23100;DHT22;53791;50.696;4.396;2023-03-04T06:05:49;6.30;99.90
23100;DHT22;53791;50.696;4.396;2023-03-04T06:08:17;6.30;99.90
23100;DHT22;53791;50.696;4.396;2023-03-04T06:10:44;6.30;99.90
23100;DHT22;53791;50.696;4.396;2023-03-04T06:13:12;6.40;99.90
23100;DHT22;53791;50.696;4.396;2023-03-04T06:15:39;6.50;99.90
23100;DHT22;53791;50.696;4.396;2023-03-04T06:18:07;6.40;99.90
23100;DHT22;53791;50.696;4.396;2023-03-04T06:20:35;6.40;99.90
23100;DHT22;53791;50.696;4.396;2023-03-04T06:23:03;6.40;99.90
23100;DHT22;53791;50.696;4.396;2023-03-04T06:25:31;6.30;99.90
23100;DHT22;53791;50.696;4.396;2023-03-04T06:27:59;6.30;99.90
23100;DHT22;53791;50.696;4.396;2023-03-04T06:30:29;6.30;99.90
23100;DHT22;53791;50.696;4.396;2023-03-04T06:32:57;6.40;99.90
23100;DHT22;53791;50.696;4.396;2023-03-04T06:35:24;6.50;99.90
23100;DHT22;53791;50.696;4.396;2023-03-04T06:37:52;6.50;99.90
23100;DHT22;53791;50.696;4.396;2023-03-04T06:40:21;6.60;99.90
23100;DHT22;53791;50.696;4.396;2023-03-04T06:42:48;6.60;99.90
23100;DHT22;53791;50.696;4.396;2023-03-04T06:45:16;6.50;99.90
23100;DHT22;53791;50.696;4.396;2023-03-04T06:47:44;6.40;99.90
23100;DHT22;53791;50.696;4.396;2023-03-04T06:50:12;6.40;99.90
23100;DHT22;53791;50.696;4.396;2023-03-04T06:52:40;6.40;99.90
23100;DHT22;53791;50.696;4.396;2023-03-04T06:55:13;6.40;99.90
23100;DHT22;53791;50.696;4.396;2023-03-04T06:57:40;6.50;99.90
23100;DHT22;53791;50.696;4.396;2023-03-04T07:00:08;6.50;99.90
23100;DHT22;53791;50.696;4.396;2023-03-04T07:02:36;6.40;99.90
23100;DHT22;53791;50.696;4.396;2023-03-04T07:05:04;6.40;99.90
23100;DHT22;53791;50.696;4.396;2023-03-04T07:07:33;6.50;99.90
23100;DHT22;53791;50.696;4.396;2023-03-04T07:10:01;6.50;99.90
23100;DHT22;53791;50.696;4.396;2023-03-04T07:12:29;6.50;99.90
23100;DHT22;53791;50.696;4.396;2023-03-04T07:14:56;6.50;99.90
23100;DHT22;53791;50.696;4.396;2023-03-04T07:17:24;6.50;99.90
23100;DHT22;53791;50.696;4.396;2023-03-04T07:19:53;6.60;99.90
23100;DHT22;53791;50.696;4.396;2023-03-04T07:22:21;6.60;99.90
23100;DHT22;53791;50.696;4.396;2023-03-04T07:24:48;6.60;99.90
23100;DHT22;53791;50.696;4.396;2023-03-04T07:27:16;6.60;99.90
23100;DHT22;53791;50.696;4.396;2023-03-04T07:29:43;6.70;99.90
23100;DHT22;53791;50.696;4.396;2023-03-04T07:32:11;6.80;99.90
23100;DHT22;53791;50.696;4.396;2023-03-04T07:34:38;6.80;99.90
23100;DHT22;53791;50.696;4.396;2023-03-04T07:37:06;6.90;99.90
23100;DHT22;53791;50.696;4.396;2023-03-04T07:39:33;6.90;99.90
23100;DHT22;53791;50.696;4.396;2023-03-04T07:42:01;6.90;99.90
23100;DHT22;53791;50.696;4.396;2023-03-04T07:44:28;6.80;99.90
23100;DHT22;53791;50.696;4.396;2023-03-04T07:46:56;6.80;99.90
23100;DHT22;53791;50.696;4.396;2023-03-04T07:49:23;6.80;99.90
23100;DHT22;53791;50.696;4.396;2023-03-04T07:51:51;6.90;99.90
23100;DHT22;53791;50.696;4.396;2023-03-04T07:54:18;6.80;99.90
23100;DHT22;53791;50.696;4.396;2023-03-04T07:56:46;6.90;99.90
23100;DHT22;53791;50.696;4.396;2023-03-04T07:59:13;7.00;99.90
23100;DHT22;53791;50.696;4.396;2023-03-04T08:01:46;7.00;99.90
23100;DHT22;53791;50.696;4.396;2023-03-04T08:04:10;7.00;99.90
23100;DHT22;53791;50.696;4.396;2023-03-04T08:06:40;7.10;99.90
23100;DHT22;53791;50.696;4.396;2023-03-04T08:09:09;7.10;99.90
23100;DHT22;53791;50.696;4.396;2023-03-04T08:11:38;7.10;99.90
23100;DHT22;53791;50.696;4.396;2023-03-04T08:14:06;7.10;99.90
23100;DHT22;53791;50.696;4.396;2023-03-04T08:16:34;7.10;99.90
23100;DHT22;53791;50.696;4.396;2023-03-04T08:19:03;7.10;99.90
23100;DHT22;53791;50.696;4.396;2023-03-04T08:21:31;7.10;99.90
23100;DHT22;53791;50.696;4.396;2023-03-04T08:24:00;7.20;99.90
23100;DHT22;53791;50.696;4.396;2023-03-04T08:26:33;7.20;99.90
23100;DHT22;53791;50.696;4.396;2023-03-04T08:29:04;7.20;99.90
23100;DHT22;53791;50.696;4.396;2023-03-04T08:31:33;7.20;99.90
23100;DHT22;53791;50.696;4.396;2023-03-04T08:34:02;7.20;99.90
23100;DHT22;53791;50.696;4.396;2023-03-04T08:36:32;7.20;99.90
23100;DHT22;53791;50.696;4.396;2023-03-04T08:38:59;7.20;99.90
23100;DHT22;53791;50.696;4.396;2023-03-04T08:41:27;7.30;99.90
23100;DHT22;53791;50.696;4.396;2023-03-04T08:43:55;7.40;99.90
23100;DHT22;53791;50.696;4.396;2023-03-04T08:46:22;7.40;99.90
23100;DHT22;53791;50.696;4.396;2023-03-04T08:48:50;7.50;99.90
23100;DHT22;53791;50.696;4.396;2023-03-04T08:51:18;7.60;99.90
23100;DHT22;53791;50.696;4.396;2023-03-04T08:53:45;7.60;99.90
23100;DHT22;53791;50.696;4.396;2023-03-04T08:56:13;7.50;99.90
23100;DHT22;53791;50.696;4.396;2023-03-04T08:58:42;7.50;99.90
23100;DHT22;53791;50.696;4.396;2023-03-04T09:01:14;7.50;99.90
23100;DHT22;53791;50.696;4.396;2023-03-04T09:03:42;7.50;99.90
23100;DHT22;53791;50.696;4.396;2023-03-04T09:06:16;7.60;99.90
23100;DHT22;53791;50.696;4.396;2023-03-04T09:08:56;7.70;99.90
23100;DHT22;53791;50.696;4.396;2023-03-04T09:11:10;7.70;99.90
23100;DHT22;53791;50.696;4.396;2023-03-04T09:13:37;7.70;99.90
23100;DHT22;53791;50.696;4.396;2023-03-04T09:16:10;7.70;99.90
23100;DHT22;53791;50.696;4.396;2023-03-04T09:18:37;7.80;99.90
23100;DHT22;53791;50.696;4.396;2023-03-04T09:21:06;7.80;99.90
23100;DHT22;53791;50.696;4.396;2023-03-04T09:23:36;7.70;99.90
23100;DHT22;53791;50.696;4.396;2023-03-04T09:26:21;7.70;99.90
23100;DHT22;53791;50.696;4.396;2023-03-04T09:28:54;7.80;99.90
23100;DHT22;53791;50.696;4.396;2023-03-04T09:31:23;7.80;99.90
23100;DHT22;53791;50.696;4.396;2023-03-04T09:33:52;7.70;99.90
23100;DHT22;53791;50.696;4.396;2023-03-04T09:36:20;7.80;99.90
23100;DHT22;53791;50.696;4.396;2023-03-04T09:38:48;7.90;99.90
23100;DHT22;53791;50.696;4.396;2023-03-04T09:41:17;7.90;99.90
23100;DHT22;53791;50.696;4.396;2023-03-04T09:43:47;7.90;99.90
23100;DHT22;53791;50.696;4.396;2023-03-04T09:48:53;8.00;99.90
23100;DHT22;53791;50.696;4.396;2023-03-04T09:54:15;8.00;99.90
23100;DHT22;53791;50.696;4.396;2023-03-04T09:56:42;8.10;99.90
23100;DHT22;53791;50.696;4.396;2023-03-04T09:59:23;8.20;99.90
23100;DHT22;53791;50.696;4.396;2023-03-04T10:01:55;8.30;99.90
23100;DHT22;53791;50.696;4.396;2023-03-04T10:07:02;8.50;99.90
23100;DHT22;53791;50.696;4.396;2023-03-04T10:09:42;8.60;99.90
23100;DHT22;53791;50.696;4.396;2023-03-04T10:12:03;8.70;99.90
23100;DHT22;53791;50.696;4.396;2023-03-04T10:17:27;8.70;99.90
23100;DHT22;53791;50.696;4.396;2023-03-04T10:20:02;8.70;99.90
23100;DHT22;53791;50.696;4.396;2023-03-04T10:22:40;8.80;99.90
23100;DHT22;53791;50.696;4.396;2023-03-04T10:25:29;8.80;99.90
23100;DHT22;53791;50.696;4.396;2023-03-04T10:28:05;8.90;99.90
23100;DHT22;53791;50.696;4.396;2023-03-04T10:30:47;9.00;99.90
23100;DHT22;53791;50.696;4.396;2023-03-04T10:33:01;9.00;99.90
23100;DHT22;53791;50.696;4.396;2023-03-04T10:35:32;9.20;99.90
23100;DHT22;53791;50.696;4.396;2023-03-04T10:38:02;9.20;99.90
23100;DHT22;53791;50.696;4.396;2023-03-04T10:40:36;9.30;99.90
23100;DHT22;53791;50.696;4.396;2023-03-04T10:43:00;9.30;99.90
23100;DHT22;53791;50.696;4.396;2023-03-04T10:45:30;9.20;99.90
23100;DHT22;53791;50.696;4.396;2023-03-04T10:47:59;9.40;99.90
23100;DHT22;53791;50.696;4.396;2023-03-04T10:50:28;9.50;99.90
23100;DHT22;53791;50.696;4.396;2023-03-04T10:52:57;9.70;99.90
23100;DHT22;53791;50.696;4.396;2023-03-04T10:55:41;9.80;99.90
23100;DHT22;53791;50.696;4.396;2023-03-04T10:58:03;9.80;99.90
23100;DHT22;53791;50.696;4.396;2023-03-04T11:00:35;9.90;99.90
23100;DHT22;53791;50.696;4.396;2023-03-04T11:03:31;9.90;99.90
23100;DHT22;53791;50.696;4.396;2023-03-04T11:06:03;9.90;99.90
23100;DHT22;53791;50.696;4.396;2023-03-04T11:08:33;9.80;99.90
23100;DHT22;53791;50.696;4.396;2023-03-04T11:11:01;9.70;99.90
23100;DHT22;53791;50.696;4.396;2023-03-04T11:13:29;9.80;99.90
23100;DHT22;53791;50.696;4.396;2023-03-04T11:16:04;9.80;99.90
23100;DHT22;53791;50.696;4.396;2023-03-04T11:21:15;9.90;99.90
23100;DHT22;53791;50.696;4.396;2023-03-04T11:23:48;9.90;99.90
23100;DHT22;53791;50.696;4.396;2023-03-04T11:34:33;10.10;99.90
23100;DHT22;53791;50.696;4.396;2023-03-04T11:36:54;10.20;99.90
23100;DHT22;53791;50.696;4.396;2023-03-04T11:39:36;10.40;99.90
23100;DHT22;53791;50.696;4.396;2023-03-04T11:42:27;10.60;99.90
23100;DHT22;53791;50.696;4.396;2023-03-04T11:44:51;10.60;99.90
23100;DHT22;53791;50.696;4.396;2023-03-04T11:50:09;10.40;99.90
23100;DHT22;53791;50.696;4.396;2023-03-04T11:52:56;10.30;99.90
23100;DHT22;53791;50.696;4.396;2023-03-04T11:55:39;10.00;99.90
23100;DHT22;53791;50.696;4.396;2023-03-04T12:01:08;9.80;99.90
23100;DHT22;53791;50.696;4.396;2023-03-04T12:03:49;9.70;99.90
23100;DHT22;53791;50.696;4.396;2023-03-04T12:06:39;9.70;99.90
23100;DHT22;53791;50.696;4.396;2023-03-04T12:09:13;9.50;99.90
23100;DHT22;53791;50.696;4.396;2023-03-04T12:14:57;9.50;99.90
23100;DHT22;53791;50.696;4.396;2023-03-04T12:17:39;9.40;99.90
23100;DHT22;53791;50.696;4.396;2023-03-04T12:20:39;9.40;99.90
23100;DHT22;53791;50.696;4.396;2023-03-04T12:25:59;9.40;99.90
23100;DHT22;53791;50.696;4.396;2023-03-04T12:31:20;9.60;99.90
23100;DHT22;53791;50.696;4.396;2023-03-04T12:40:07;10.00;99.90
23100;DHT22;53791;50.696;4.396;2023-03-04T12:42:48;10.10;99.90
23100;DHT22;53791;50.696;4.396;2023-03-04T12:45:26;10.20;99.90
23100;DHT22;53791;50.696;4.396;2023-03-04T12:48:01;10.30;99.90
23100;DHT22;53791;50.696;4.396;2023-03-04T12:55:56;10.10;99.90
23100;DHT22;53791;50.696;4.396;2023-03-04T12:58:31;10.10;99.90
23100;DHT22;53791;50.696;4.396;2023-03-04T13:01:04;10.00;99.90
23100;DHT22;53791;50.696;4.396;2023-03-04T13:12:02;10.10;99.90
23100;DHT22;53791;50.696;4.396;2023-03-04T13:14:25;10.20;99.90
23100;DHT22;53791;50.696;4.396;2023-03-04T13:16:55;10.30;99.90
23100;DHT22;53791;50.696;4.396;2023-03-04T13:19:49;10.10;99.90
23100;DHT22;53791;50.696;4.396;2023-03-04T13:25:31;10.10;99.90
23100;DHT22;53791;50.696;4.396;2023-03-04T13:31:03;10.30;99.90
23100;DHT22;53791;50.696;4.396;2023-03-04T13:38:24;10.30;99.90
23100;DHT22;53791;50.696;4.396;2023-03-04T13:41:17;10.30;99.90
23100;DHT22;53791;50.696;4.396;2023-03-04T13:43:51;10.20;99.90
23100;DHT22;53791;50.696;4.396;2023-03-04T13:46:27;10.10;99.90
23100;DHT22;53791;50.696;4.396;2023-03-04T13:49:01;10.00;99.90
23100;DHT22;53791;50.696;4.396;2023-03-04T13:51:31;9.80;99.90
23100;DHT22;53791;50.696;4.396;2023-03-04T13:56:37;9.90;99.90
23100;DHT22;53791;50.696;4.396;2023-03-04T13:59:11;10.00;99.90
23100;DHT22;53791;50.696;4.396;2023-03-04T14:06:46;10.00;99.90
23100;DHT22;53791;50.696;4.396;2023-03-04T14:09:18;9.90;99.90
23100;DHT22;53791;50.696;4.396;2023-03-04T14:11:46;9.80;99.90
23100;DHT22;53791;50.696;4.396;2023-03-04T14:14:23;9.70;99.90
23100;DHT22;53791;50.696;4.396;2023-03-04T14:16:58;9.60;99.90
23100;DHT22;53791;50.696;4.396;2023-03-04T14:19:42;9.40;99.90
23100;DHT22;53791;50.696;4.396;2023-03-04T14:22:27;9.30;99.90
23100;DHT22;53791;50.696;4.396;2023-03-04T14:25:04;9.40;99.90
23100;DHT22;53791;50.696;4.396;2023-03-04T14:27:30;9.30;99.90
23100;DHT22;53791;50.696;4.396;2023-03-04T14:30:02;9.30;99.90
23100;DHT22;53791;50.696;4.396;2023-03-04T14:32:32;9.20;99.90
23100;DHT22;53791;50.696;4.396;2023-03-04T14:35:18;9.30;99.90
23100;DHT22;53791;50.696;4.396;2023-03-04T14:37:48;9.30;99.90
23100;DHT22;53791;50.696;4.396;2023-03-04T14:40:29;9.30;99.90
23100;DHT22;53791;50.696;4.396;2023-03-04T14:42:59;9.20;99.90
23100;DHT22;53791;50.696;4.396;2023-03-04T14:45:27;9.20;99.90
23100;DHT22;53791;50.696;4.396;2023-03-04T14:47:59;9.20;99.90
23100;DHT22;53791;50.696;4.396;2023-03-04T14:50:26;9.10;99.90
23100;DHT22;53791;50.696;4.396;2023-03-04T14:55:36;9.10;99.90
23100;DHT22;53791;50.696;4.396;2023-03-04T14:58:21;9.20;99.90
23100;DHT22;53791;50.696;4.396;2023-03-04T15:01:00;9.10;99.90
23100;DHT22;53791;50.696;4.396;2023-03-04T15:03:27;9.10;99.90
23100;DHT22;53791;50.696;4.396;2023-03-04T15:06:06;9.10;99.90
23100;DHT22;53791;50.696;4.396;2023-03-04T15:08:36;9.00;99.90
23100;DHT22;53791;50.696;4.396;2023-03-04T15:11:05;8.90;99.90
23100;DHT22;53791;50.696;4.396;2023-03-04T15:13:44;8.90;99.90
23100;DHT22;53791;50.696;4.396;2023-03-04T15:16:13;8.90;99.90
23100;DHT22;53791;50.696;4.396;2023-03-04T15:19:00;8.90;99.90
23100;DHT22;53791;50.696;4.396;2023-03-04T15:21:34;8.90;99.90
23100;DHT22;53791;50.696;4.396;2023-03-04T15:24:04;8.90;99.90
23100;DHT22;53791;50.696;4.396;2023-03-04T15:26:38;9.00;99.90
23100;DHT22;53791;50.696;4.396;2023-03-04T15:29:17;8.80;99.90
23100;DHT22;53791;50.696;4.396;2023-03-04T15:31:55;9.00;99.90
23100;DHT22;53791;50.696;4.396;2023-03-04T15:34:16;9.00;99.90
23100;DHT22;53791;50.696;4.396;2023-03-04T15:36:47;9.00;99.90
23100;DHT22;53791;50.696;4.396;2023-03-04T15:39:17;8.90;99.90
23100;DHT22;53791;50.696;4.396;2023-03-04T15:41:48;8.60;99.90
23100;DHT22;53791;50.696;4.396;2023-03-04T15:44:16;8.80;99.90
23100;DHT22;53791;50.696;4.396;2023-03-04T15:46:43;8.80;99.90
23100;DHT22;53791;50.696;4.396;2023-03-04T15:49:11;8.80;99.90
23100;DHT22;53791;50.696;4.396;2023-03-04T15:51:39;8.90;99.90
23100;DHT22;53791;50.696;4.396;2023-03-04T15:54:13;8.90;99.90
23100;DHT22;53791;50.696;4.396;2023-03-04T15:56:39;8.90;99.90
23100;DHT22;53791;50.696;4.396;2023-03-04T15:59:11;9.00;99.90
23100;DHT22;53791;50.696;4.396;2023-03-04T16:01:44;9.00;99.90
23100;DHT22;53791;50.696;4.396;2023-03-04T16:04:18;9.10;99.90
23100;DHT22;53791;50.696;4.396;2023-03-04T16:06:44;9.10;99.90
23100;DHT22;53791;50.696;4.396;2023-03-04T16:09:15;9.20;99.90
23100;DHT22;53791;50.696;4.396;2023-03-04T16:11:46;9.20;99.90
23100;DHT22;53791;50.696;4.396;2023-03-04T16:14:15;9.10;99.90
23100;DHT22;53791;50.696;4.396;2023-03-04T16:16:43;9.10;99.90
23100;DHT22;53791;50.696;4.396;2023-03-04T16:19:12;9.10;99.90
23100;DHT22;53791;50.696;4.396;2023-03-04T16:21:40;9.10;99.90
23100;DHT22;53791;50.696;4.396;2023-03-04T16:24:15;9.10;99.90
23100;DHT22;53791;50.696;4.396;2023-03-04T16:26:44;9.00;99.90
23100;DHT22;53791;50.696;4.396;2023-03-04T16:29:11;9.00;99.90
23100;DHT22;53791;50.696;4.396;2023-03-04T16:31:39;8.90;99.90
23100;DHT22;53791;50.696;4.396;2023-03-04T16:34:07;8.90;99.90
23100;DHT22;53791;50.696;4.396;2023-03-04T16:36:34;8.90;99.90
23100;DHT22;53791;50.696;4.396;2023-03-04T16:39:05;9.00;99.90
23100;DHT22;53791;50.696;4.396;2023-03-04T16:41:37;9.00;99.90
23100;DHT22;53791;50.696;4.396;2023-03-04T16:44:04;9.00;99.90
23100;DHT22;53791;50.696;4.396;2023-03-04T16:46:33;9.00;99.90
23100;DHT22;53791;50.696;4.396;2023-03-04T16:49:00;9.10;99.90
23100;DHT22;53791;50.696;4.396;2023-03-04T16:51:28;9.10;99.90
23100;DHT22;53791;50.696;4.396;2023-03-04T16:53:57;9.10;99.90
23100;DHT22;53791;50.696;4.396;2023-03-04T16:56:28;9.00;99.90
23100;DHT22;53791;50.696;4.396;2023-03-04T16:58:55;9.00;99.90
23100;DHT22;53791;50.696;4.396;2023-03-04T17:01:27;8.90;99.90
23100;DHT22;53791;50.696;4.396;2023-03-04T17:03:56;8.90;99.90
23100;DHT22;53791;50.696;4.396;2023-03-04T17:06:24;8.90;99.90
23100;DHT22;53791;50.696;4.396;2023-03-04T17:08:51;8.90;99.90
23100;DHT22;53791;50.696;4.396;2023-03-04T17:11:22;8.90;99.90
23100;DHT22;53791;50.696;4.396;2023-03-04T17:13:50;8.90;99.90
23100;DHT22;53791;50.696;4.396;2023-03-04T17:16:17;8.90;99.90
23100;DHT22;53791;50.696;4.396;2023-03-04T17:18:45;8.90;99.90
23100;DHT22;53791;50.696;4.396;2023-03-04T17:21:16;8.80;99.90
23100;DHT22;53791;50.696;4.396;2023-03-04T17:23:43;8.70;99.90